sensor_id;sensor_type;location;lat;lon;timestamp;P1;durP1;ratioP1;P2;durP2;ratioP2
43311;SDS011;30041;48.300;16.352;2023-08-01T00:01:17;3.17;;;1.88;;
43311;SDS011;30041;48.300;16.352;2023-08-01T00:03:42;5.25;;;2.40;;
43311;SDS011;30041;48.300;16.352;2023-08-01T00:06:08;4.85;;;2.22;;
43311;SDS011;30041;48.300;16.352;2023-08-01T00:08:33;3.45;;;2.30;;
43311;SDS011;30041;48.300;16.352;2023-08-01T00:10:59;5.00;;;2.25;;
43311;SDS011;30041;48.300;16.352;2023-08-01T00:13:24;4.93;;;2.38;;
43311;SDS011;30041;48.300;16.352;2023-08-01T00:15:50;3.95;;;2.22;;
43311;SDS011;30041;48.300;16.352;2023-08-01T00:18:15;3.95;;;2.40;;
43311;SDS011;30041;48.300;16.352;2023-08-01T00:20:41;3.80;;;2.10;;
43311;SDS011;30041;48.300;16.352;2023-08-01T00:23:06;4.38;;;2.28;;
43311;SDS011;30041;48.300;16.352;2023-08-01T00:25:31;3.28;;;2.05;;
43311;SDS011;30041;48.300;16.352;2023-08-01T00:27:57;3.10;;;1.92;;
43311;SDS011;30041;48.300;16.352;2023-08-01T00:30:22;3.13;;;2.20;;
43311;SDS011;30041;48.300;16.352;2023-08-01T00:32:48;4.07;;;1.95;;
43311;SDS011;30041;48.300;16.352;2023-08-01T00:35:13;4.90;;;2.55;;
43311;SDS011;30041;48.300;16.352;2023-08-01T00:37:39;3.10;;;1.83;;
43311;SDS011;30041;48.300;16.352;2023-08-01T00:40:05;4.47;;;2.63;;
43311;SDS011;30041;48.300;16.352;2023-08-01T00:42:31;4.43;;;2.28;;
43311;SDS011;30041;48.300;16.352;2023-08-01T00:44:56;4.60;;;2.10;;
43311;SDS011;30041;48.300;16.352;2023-08-01T00:47:22;3.50;;;2.40;;
43311;SDS011;30041;48.300;16.352;2023-08-01T00:49:47;3.78;;;1.88;;
43311;SDS011;30041;48.300;16.352;2023-08-01T00:52:14;3.90;;;2.30;;
43311;SDS011;30041;48.300;16.352;2023-08-01T00:54:39;3.92;;;2.10;;
43311;SDS011;30041;48.300;16.352;2023-08-01T00:57:05;3.28;;;2.30;;
43311;SDS011;30041;48.300;16.352;2023-08-01T00:59:31;4.38;;;2.25;;
43311;SDS011;30041;48.300;16.352;2023-08-01T01:01:57;2.78;;;1.92;;
43311;SDS011;30041;48.300;16.352;2023-08-01T01:04:25;2.83;;;1.95;;
43311;SDS011;30041;48.300;16.352;2023-08-01T01:06:55;5.15;;;2.20;;
43311;SDS011;30041;48.300;16.352;2023-08-01T01:09:29;2.70;;;1.80;;
43311;SDS011;30041;48.300;16.352;2023-08-01T01:11:55;4.57;;;2.13;;
43311;SDS011;30041;48.300;16.352;2023-08-01T01:14:21;3.00;;;2.00;;
43311;SDS011;30041;48.300;16.352;2023-08-01T01:16:46;3.33;;;1.92;;
43311;SDS011;30041;48.300;16.352;2023-08-01T01:19:12;3.33;;;2.28;;
43311;SDS011;30041;48.300;16.352;2023-08-01T01:24:25;5.45;;;2.20;;
43311;SDS011;30041;48.300;16.352;2023-08-01T01:26:53;3.28;;;1.80;;
43311;SDS011;30041;48.300;16.352;2023-08-01T01:29:19;3.05;;;2.10;;
43311;SDS011;30041;48.300;16.352;2023-08-01T01:31:46;3.50;;;2.25;;
43311;SDS011;30041;48.300;16.352;2023-08-01T01:34:13;3.72;;;2.17;;
43311;SDS011;30041;48.300;16.352;2023-08-01T01:36:38;3.58;;;2.28;;
43311;SDS011;30041;48.300;16.352;2023-08-01T01:39:04;3.50;;;1.92;;
43311;SDS011;30041;48.300;16.352;2023-08-01T01:41:29;4.00;;;2.15;;
43311;SDS011;30041;48.300;16.352;2023-08-01T01:43:55;4.07;;;2.20;;
43311;SDS011;30041;48.300;16.352;2023-08-01T01:46:20;4.63;;;2.13;;
43311;SDS011;30041;48.300;16.352;2023-08-01T01:48:46;4.38;;;2.08;;
43311;SDS011;30041;48.300;16.352;2023-08-01T01:51:11;3.80;;;2.00;;
43311;SDS011;30041;48.300;16.352;2023-08-01T01:53:37;3.97;;;2.05;;
43311;SDS011;30041;48.300;16.352;2023-08-01T01:56:02;3.40;;;2.00;;
43311;SDS011;30041;48.300;16.352;2023-08-01T01:58:28;4.47;;;2.05;;
43311;SDS011;30041;48.300;16.352;2023-08-01T02:00:53;3.97;;;2.00;;
43311;SDS011;30041;48.300;16.352;2023-08-01T02:03:21;4.15;;;2.30;;
43311;SDS011;30041;48.300;16.352;2023-08-01T02:05:46;4.47;;;2.03;;
43311;SDS011;30041;48.300;16.352;2023-08-01T02:08:12;3.35;;;2.00;;
43311;SDS011;30041;48.300;16.352;2023-08-01T02:10:37;3.85;;;2.28;;
43311;SDS011;30041;48.300;16.352;2023-08-01T02:13:03;5.28;;;2.13;;
43311;SDS011;30041;48.300;16.352;2023-08-01T02:15:29;4.50;;;2.20;;
43311;SDS011;30041;48.300;16.352;2023-08-01T02:17:54;5.80;;;2.47;;
43311;SDS011;30041;48.300;16.352;2023-08-01T02:20:20;3.58;;;2.08;;
43311;SDS011;30041;48.300;16.352;2023-08-01T02:22:45;3.65;;;2.10;;
43311;SDS011;30041;48.300;16.352;2023-08-01T02:25:11;4.20;;;2.30;;
43311;SDS011;30041;48.300;16.352;2023-08-01T02:27:36;5.20;;;2.42;;
43311;SDS011;30041;48.300;16.352;2023-08-01T02:30:02;4.35;;;2.50;;
43311;SDS011;30041;48.300;16.352;2023-08-01T02:32:28;4.40;;;2.38;;
43311;SDS011;30041;48.300;16.352;2023-08-01T02:34:53;3.58;;;2.10;;
43311;SDS011;30041;48.300;16.352;2023-08-01T02:37:19;3.80;;;2.70;;
43311;SDS011;30041;48.300;16.352;2023-08-01T02:39:44;4.47;;;2.35;;
43311;SDS011;30041;48.300;16.352;2023-08-01T02:42:09;5.40;;;2.15;;
43311;SDS011;30041;48.300;16.352;2023-08-01T02:44:35;5.63;;;2.60;;
43311;SDS011;30041;48.300;16.352;2023-08-01T02:47:00;4.90;;;2.42;;
43311;SDS011;30041;48.300;16.352;2023-08-01T02:49:26;4.63;;;2.53;;
43311;SDS011;30041;48.300;16.352;2023-08-01T02:51:51;4.97;;;2.17;;
43311;SDS011;30041;48.300;16.352;2023-08-01T02:54:17;4.38;;;2.35;;
43311;SDS011;30041;48.300;16.352;2023-08-01T02:56:42;3.45;;;2.55;;
43311;SDS011;30041;48.300;16.352;2023-08-01T02:59:08;4.05;;;2.33;;
43311;SDS011;30041;48.300;16.352;2023-08-01T03:01:34;4.63;;;2.40;;
43311;SDS011;30041;48.300;16.352;2023-08-01T03:04:00;5.57;;;2.40;;
43311;SDS011;30041;48.300;16.352;2023-08-01T03:06:30;5.13;;;2.40;;
43311;SDS011;30041;48.300;16.352;2023-08-01T03:08:56;4.57;;;2.50;;
43311;SDS011;30041;48.300;16.352;2023-08-01T03:11:21;5.43;;;2.58;;
43311;SDS011;30041;48.300;16.352;2023-08-01T03:13:47;4.35;;;2.50;;
43311;SDS011;30041;48.300;16.352;2023-08-01T03:16:12;4.90;;;2.30;;
43311;SDS011;30041;48.300;16.352;2023-08-01T03:18:38;3.95;;;2.53;;
43311;SDS011;30041;48.300;16.352;2023-08-01T03:21:03;7.22;;;2.50;;
43311;SDS011;30041;48.300;16.352;2023-08-01T03:23:29;4.45;;;2.60;;
43311;SDS011;30041;48.300;16.352;2023-08-01T03:25:55;3.88;;;2.50;;
43311;SDS011;30041;48.300;16.352;2023-08-01T03:28:21;3.22;;;2.13;;
43311;SDS011;30041;48.300;16.352;2023-08-01T03:30:46;4.60;;;2.35;;
43311;SDS011;30041;48.300;16.352;2023-08-01T03:33:12;4.20;;;2.20;;
43311;SDS011;30041;48.300;16.352;2023-08-01T03:35:37;4.03;;;2.45;;
43311;SDS011;30041;48.300;16.352;2023-08-01T03:38:03;3.30;;;2.42;;
43311;SDS011;30041;48.300;16.352;2023-08-01T03:40:28;4.70;;;2.50;;
43311;SDS011;30041;48.300;16.352;2023-08-01T03:42:54;5.05;;;2.50;;
43311;SDS011;30041;48.300;16.352;2023-08-01T03:45:19;3.42;;;2.13;;
43311;SDS011;30041;48.300;16.352;2023-08-01T03:47:45;4.75;;;2.50;;
43311;SDS011;30041;48.300;16.352;2023-08-01T03:50:10;3.75;;;2.45;;
43311;SDS011;30041;48.300;16.352;2023-08-01T03:52:36;4.43;;;2.70;;
43311;SDS011;30041;48.300;16.352;2023-08-01T03:55:01;4.53;;;2.63;;
43311;SDS011;30041;48.300;16.352;2023-08-01T03:57:27;4.07;;;2.85;;
43311;SDS011;30041;48.300;16.352;2023-08-01T03:59:52;6.00;;;2.70;;
43311;SDS011;30041;48.300;16.352;2023-08-01T04:02:18;5.93;;;2.75;;
43311;SDS011;30041;48.300;16.352;2023-08-01T04:04:43;5.53;;;2.40;;
43311;SDS011;30041;48.300;16.352;2023-08-01T04:07:09;4.25;;;2.70;;
43311;SDS011;30041;48.300;16.352;2023-08-01T04:09:34;5.05;;;2.53;;
43311;SDS011;30041;48.300;16.352;2023-08-01T04:12:00;7.03;;;2.88;;
43311;SDS011;30041;48.300;16.352;2023-08-01T04:14:25;4.95;;;2.60;;
43311;SDS011;30041;48.300;16.352;2023-08-01T04:16:51;5.10;;;3.10;;
43311;SDS011;30041;48.300;16.352;2023-08-01T04:19:16;8.10;;;3.05;;
43311;SDS011;30041;48.300;16.352;2023-08-01T04:21:42;5.38;;;3.13;;
43311;SDS011;30041;48.300;16.352;2023-08-01T04:24:07;7.53;;;2.90;;
43311;SDS011;30041;48.300;16.352;2023-08-01T04:26:33;6.10;;;2.78;;
43311;SDS011;30041;48.300;16.352;2023-08-01T04:28:58;4.88;;;2.92;;
43311;SDS011;30041;48.300;16.352;2023-08-01T04:31:24;7.95;;;3.17;;
43311;SDS011;30041;48.300;16.352;2023-08-01T04:33:49;5.93;;;2.72;;
43311;SDS011;30041;48.300;16.352;2023-08-01T04:36:15;5.70;;;2.40;;
43311;SDS011;30041;48.300;16.352;2023-08-01T04:38:40;6.40;;;2.40;;
43311;SDS011;30041;48.300;16.352;2023-08-01T04:41:06;4.95;;;2.40;;
43311;SDS011;30041;48.300;16.352;2023-08-01T04:43:31;4.53;;;2.28;;
43311;SDS011;30041;48.300;16.352;2023-08-01T04:45:57;6.20;;;2.58;;
43311;SDS011;30041;48.300;16.352;2023-08-01T04:48:22;7.82;;;2.60;;
43311;SDS011;30041;48.300;16.352;2023-08-01T04:50:48;5.00;;;2.50;;
43311;SDS011;30041;48.300;16.352;2023-08-01T04:53:13;5.50;;;2.70;;
43311;SDS011;30041;48.300;16.352;2023-08-01T04:55:39;5.90;;;2.85;;
43311;SDS011;30041;48.300;16.352;2023-08-01T04:58:05;5.15;;;2.63;;
43311;SDS011;30041;48.300;16.352;2023-08-01T05:00:30;3.40;;;2.58;;
43311;SDS011;30041;48.300;16.352;2023-08-01T05:02:56;10.05;;;3.05;;
43311;SDS011;30041;48.300;16.352;2023-08-01T05:05:21;8.63;;;3.03;;
43311;SDS011;30041;48.300;16.352;2023-08-01T05:07:47;8.90;;;2.90;;
43311;SDS011;30041;48.300;16.352;2023-08-01T05:10:12;6.97;;;2.80;;
43311;SDS011;30041;48.300;16.352;2023-08-01T05:12:38;6.50;;;2.72;;
43311;SDS011;30041;48.300;16.352;2023-08-01T05:15:04;7.03;;;2.92;;
43311;SDS011;30041;48.300;16.352;2023-08-01T05:17:29;6.60;;;2.78;;
43311;SDS011;30041;48.300;16.352;2023-08-01T05:19:55;5.65;;;2.70;;
43311;SDS011;30041;48.300;16.352;2023-08-01T05:22:20;6.78;;;2.50;;
43311;SDS011;30041;48.300;16.352;2023-08-01T05:24:46;9.40;;;2.88;;
43311;SDS011;30041;48.300;16.352;2023-08-01T05:27:11;9.98;;;3.35;;
43311;SDS011;30041;48.300;16.352;2023-08-01T05:29:37;6.75;;;3.08;;
43311;SDS011;30041;48.300;16.352;2023-08-01T05:32:02;8.98;;;3.22;;
43311;SDS011;30041;48.300;16.352;2023-08-01T05:34:28;11.07;;;3.45;;
43311;SDS011;30041;48.300;16.352;2023-08-01T05:36:54;5.43;;;3.25;;
43311;SDS011;30041;48.300;16.352;2023-08-01T05:39:19;6.55;;;3.00;;
43311;SDS011;30041;48.300;16.352;2023-08-01T05:41:45;9.40;;;3.60;;
43311;SDS011;30041;48.300;16.352;2023-08-01T05:44:10;5.20;;;3.40;;
43311;SDS011;30041;48.300;16.352;2023-08-01T05:46:36;9.75;;;3.20;;
43311;SDS011;30041;48.300;16.352;2023-08-01T05:49:01;8.60;;;3.28;;
43311;SDS011;30041;48.300;16.352;2023-08-01T05:51:27;11.55;;;3.55;;
43311;SDS011;30041;48.300;16.352;2023-08-01T05:53:52;4.85;;;3.20;;
43311;SDS011;30041;48.300;16.352;2023-08-01T05:56:18;7.50;;;3.50;;
43311;SDS011;30041;48.300;16.352;2023-08-01T05:58:43;6.72;;;3.47;;
43311;SDS011;30041;48.300;16.352;2023-08-01T06:01:10;12.32;;;3.38;;
43311;SDS011;30041;48.300;16.352;2023-08-01T06:03:36;8.88;;;4.07;;
43311;SDS011;30041;48.300;16.352;2023-08-01T06:06:01;6.07;;;3.70;;
43311;SDS011;30041;48.300;16.352;2023-08-01T06:08:27;7.05;;;4.18;;
43311;SDS011;30041;48.300;16.352;2023-08-01T06:10:52;7.60;;;3.67;;
43311;SDS011;30041;48.300;16.352;2023-08-01T06:13:18;7.35;;;3.92;;
43311;SDS011;30041;48.300;16.352;2023-08-01T06:15:43;6.95;;;3.45;;
43311;SDS011;30041;48.300;16.352;2023-08-01T06:18:09;6.55;;;3.58;;
43311;SDS011;30041;48.300;16.352;2023-08-01T06:20:34;10.15;;;3.83;;
43311;SDS011;30041;48.300;16.352;2023-08-01T06:23:00;7.53;;;3.83;;
43311;SDS011;30041;48.300;16.352;2023-08-01T06:25:26;8.73;;;3.80;;
43311;SDS011;30041;48.300;16.352;2023-08-01T06:27:51;9.98;;;3.55;;
43311;SDS011;30041;48.300;16.352;2023-08-01T06:30:17;7.13;;;3.50;;
43311;SDS011;30041;48.300;16.352;2023-08-01T06:32:42;7.00;;;3.70;;
43311;SDS011;30041;48.300;16.352;2023-08-01T06:35:08;10.95;;;3.75;;
43311;SDS011;30041;48.300;16.352;2023-08-01T06:37:33;5.45;;;3.72;;
43311;SDS011;30041;48.300;16.352;2023-08-01T06:39:59;7.43;;;3.60;;
43311;SDS011;30041;48.300;16.352;2023-08-01T06:42:24;8.57;;;3.65;;
43311;SDS011;30041;48.300;16.352;2023-08-01T06:44:50;9.32;;;3.67;;
43311;SDS011;30041;48.300;16.352;2023-08-01T06:47:15;7.28;;;3.55;;
43311;SDS011;30041;48.300;16.352;2023-08-01T06:49:40;6.72;;;3.47;;
43311;SDS011;30041;48.300;16.352;2023-08-01T06:52:06;9.32;;;4.00;;
43311;SDS011;30041;48.300;16.352;2023-08-01T06:54:32;5.03;;;3.25;;
43311;SDS011;30041;48.300;16.352;2023-08-01T06:56:57;8.43;;;3.47;;
43311;SDS011;30041;48.300;16.352;2023-08-01T06:59:23;10.32;;;3.60;;
43311;SDS011;30041;48.300;16.352;2023-08-01T07:01:48;8.88;;;3.42;;
43311;SDS011;30041;48.300;16.352;2023-08-01T07:04:14;6.63;;;3.28;;
43311;SDS011;30041;48.300;16.352;2023-08-01T07:06:39;5.72;;;3.30;;
43311;SDS011;30041;48.300;16.352;2023-08-01T07:09:05;9.02;;;3.20;;
43311;SDS011;30041;48.300;16.352;2023-08-01T07:11:31;7.90;;;3.13;;
43311;SDS011;30041;48.300;16.352;2023-08-01T07:13:57;5.10;;;3.10;;
43311;SDS011;30041;48.300;16.352;2023-08-01T07:16:23;8.43;;;3.30;;
43311;SDS011;30041;48.300;16.352;2023-08-01T07:18:48;6.25;;;3.47;;
43311;SDS011;30041;48.300;16.352;2023-08-01T07:21:14;6.72;;;2.95;;
43311;SDS011;30041;48.300;16.352;2023-08-01T07:23:39;9.02;;;3.60;;
43311;SDS011;30041;48.300;16.352;2023-08-01T07:26:05;6.20;;;3.60;;
43311;SDS011;30041;48.300;16.352;2023-08-01T07:28:30;6.15;;;3.47;;
43311;SDS011;30041;48.300;16.352;2023-08-01T07:33:29;6.30;;;3.53;;
43311;SDS011;30041;48.300;16.352;2023-08-01T07:35:54;7.85;;;3.30;;
43311;SDS011;30041;48.300;16.352;2023-08-01T07:38:20;6.65;;;3.63;;
43311;SDS011;30041;48.300;16.352;2023-08-01T07:40:45;6.22;;;3.03;;
43311;SDS011;30041;48.300;16.352;2023-08-01T07:43:11;6.60;;;3.30;;
43311;SDS011;30041;48.300;16.352;2023-08-01T07:45:36;5.32;;;3.20;;
43311;SDS011;30041;48.300;16.352;2023-08-01T07:48:02;5.75;;;3.22;;
43311;SDS011;30041;48.300;16.352;2023-08-01T07:50:28;7.57;;;3.15;;
43311;SDS011;30041;48.300;16.352;2023-08-01T07:52:53;7.25;;;3.15;;
43311;SDS011;30041;48.300;16.352;2023-08-01T07:55:19;5.15;;;2.90;;
43311;SDS011;30041;48.300;16.352;2023-08-01T07:57:44;5.97;;;3.20;;
43311;SDS011;30041;48.300;16.352;2023-08-01T08:00:10;8.50;;;3.35;;
43311;SDS011;30041;48.300;16.352;2023-08-01T08:02:36;6.78;;;3.13;;
43311;SDS011;30041;48.300;16.352;2023-08-01T08:05:01;7.07;;;3.00;;
43311;SDS011;30041;48.300;16.352;2023-08-01T08:07:27;10.05;;;3.45;;
43311;SDS011;30041;48.300;16.352;2023-08-01T08:09:52;6.70;;;3.20;;
43311;SDS011;30041;48.300;16.352;2023-08-01T08:12:18;8.32;;;3.25;;
43311;SDS011;30041;48.300;16.352;2023-08-01T08:14:43;8.02;;;2.80;;
43311;SDS011;30041;48.300;16.352;2023-08-01T08:17:09;6.75;;;3.00;;
43311;SDS011;30041;48.300;16.352;2023-08-01T08:19:34;4.30;;;2.80;;
43311;SDS011;30041;48.300;16.352;2023-08-01T08:22:00;5.18;;;2.95;;
43311;SDS011;30041;48.300;16.352;2023-08-01T08:24:26;7.82;;;3.05;;
43311;SDS011;30041;48.300;16.352;2023-08-01T08:26:51;6.47;;;2.90;;
43311;SDS011;30041;48.300;16.352;2023-08-01T08:29:17;4.68;;;2.80;;
43311;SDS011;30041;48.300;16.352;2023-08-01T08:31:42;5.05;;;2.55;;
43311;SDS011;30041;48.300;16.352;2023-08-01T08:34:08;5.80;;;2.50;;
43311;SDS011;30041;48.300;16.352;2023-08-01T08:36:33;5.32;;;2.95;;
43311;SDS011;30041;48.300;16.352;2023-08-01T08:39:01;5.40;;;2.78;;
43311;SDS011;30041;48.300;16.352;2023-08-01T08:41:27;7.82;;;3.08;;
43311;SDS011;30041;48.300;16.352;2023-08-01T08:43:57;4.63;;;2.65;;
43311;SDS011;30041;48.300;16.352;2023-08-01T08:46:28;5.40;;;2.78;;
43311;SDS011;30041;48.300;16.352;2023-08-01T08:48:55;6.20;;;2.60;;
43311;SDS011;30041;48.300;16.352;2023-08-01T08:51:22;5.82;;;2.65;;
43311;SDS011;30041;48.300;16.352;2023-08-01T08:53:51;6.50;;;2.92;;
43311;SDS011;30041;48.300;16.352;2023-08-01T08:56:18;5.93;;;2.88;;
43311;SDS011;30041;48.300;16.352;2023-08-01T08:58:45;5.90;;;2.97;;
43311;SDS011;30041;48.300;16.352;2023-08-01T09:01:11;5.40;;;2.95;;
43311;SDS011;30041;48.300;16.352;2023-08-01T09:03:36;5.82;;;3.03;;
43311;SDS011;30041;48.300;16.352;2023-08-01T09:06:04;6.18;;;2.67;;
43311;SDS011;30041;48.300;16.352;2023-08-01T09:08:35;8.43;;;2.88;;
43311;SDS011;30041;48.300;16.352;2023-08-01T09:11:02;5.97;;;3.20;;
43311;SDS011;30041;48.300;16.352;2023-08-01T09:13:28;6.78;;;2.60;;
43311;SDS011;30041;48.300;16.352;2023-08-01T09:15:54;5.47;;;2.45;;
43311;SDS011;30041;48.300;16.352;2023-08-01T09:18:21;3.85;;;2.35;;
43311;SDS011;30041;48.300;16.352;2023-08-01T09:20:47;3.70;;;2.63;;
43311;SDS011;30041;48.300;16.352;2023-08-01T09:23:14;7.20;;;2.70;;
43311;SDS011;30041;48.300;16.352;2023-08-01T09:25:41;4.78;;;2.70;;
43311;SDS011;30041;48.300;16.352;2023-08-01T09:28:16;5.32;;;2.97;;
43311;SDS011;30041;48.300;16.352;2023-08-01T09:30:46;6.15;;;3.10;;
43311;SDS011;30041;48.300;16.352;2023-08-01T09:33:13;4.90;;;3.00;;
43311;SDS011;30041;48.300;16.352;2023-08-01T09:35:39;4.97;;;3.10;;
43311;SDS011;30041;48.300;16.352;2023-08-01T09:38:04;4.85;;;3.00;;
43311;SDS011;30041;48.300;16.352;2023-08-01T09:40:36;7.47;;;2.90;;
43311;SDS011;30041;48.300;16.352;2023-08-01T09:43:03;3.88;;;2.88;;
43311;SDS011;30041;48.300;16.352;2023-08-01T09:45:28;5.03;;;2.88;;
43311;SDS011;30041;48.300;16.352;2023-08-01T09:47:54;6.13;;;3.30;;
43311;SDS011;30041;48.300;16.352;2023-08-01T09:50:20;6.28;;;3.03;;
43311;SDS011;30041;48.300;16.352;2023-08-01T09:52:47;4.85;;;3.25;;
43311;SDS011;30041;48.300;16.352;2023-08-01T09:55:12;5.00;;;2.80;;
43311;SDS011;30041;48.300;16.352;2023-08-01T09:57:38;3.97;;;2.83;;
43311;SDS011;30041;48.300;16.352;2023-08-01T10:00:07;5.18;;;3.03;;
43311;SDS011;30041;48.300;16.352;2023-08-01T10:02:33;4.75;;;2.83;;
43311;SDS011;30041;48.300;16.352;2023-08-01T10:05:00;5.15;;;3.40;;
43311;SDS011;30041;48.300;16.352;2023-08-01T10:07:27;4.63;;;3.20;;
43311;SDS011;30041;48.300;16.352;2023-08-01T10:09:55;5.57;;;3.20;;
43311;SDS011;30041;48.300;16.352;2023-08-01T10:12:22;4.80;;;2.97;;
43311;SDS011;30041;48.300;16.352;2023-08-01T10:14:51;6.22;;;3.42;;
43311;SDS011;30041;48.300;16.352;2023-08-01T10:17:19;6.30;;;2.92;;
43311;SDS011;30041;48.300;16.352;2023-08-01T10:19:46;4.93;;;3.10;;
43311;SDS011;30041;48.300;16.352;2023-08-01T10:22:14;6.70;;;3.03;;
43311;SDS011;30041;48.300;16.352;2023-08-01T10:24:40;5.13;;;2.95;;
43311;SDS011;30041;48.300;16.352;2023-08-01T10:27:18;6.03;;;3.05;;
43311;SDS011;30041;48.300;16.352;2023-08-01T10:29:45;5.10;;;3.60;;
43311;SDS011;30041;48.300;16.352;2023-08-01T10:32:27;6.50;;;3.17;;
43311;SDS011;30041;48.300;16.352;2023-08-01T10:34:56;6.20;;;3.27;;
43311;SDS011;30041;48.300;16.352;2023-08-01T10:37:22;8.05;;;3.72;;
43311;SDS011;30041;48.300;16.352;2023-08-01T10:39:55;10.15;;;3.90;;
43311;SDS011;30041;48.300;16.352;2023-08-01T10:42:36;6.85;;;3.50;;
43311;SDS011;30041;48.300;16.352;2023-08-01T10:45:22;9.02;;;3.85;;
43311;SDS011;30041;48.300;16.352;2023-08-01T10:47:49;10.40;;;3.83;;
43311;SDS011;30041;48.300;16.352;2023-08-01T10:50:15;8.15;;;3.70;;
43311;SDS011;30041;48.300;16.352;2023-08-01T10:52:42;5.75;;;3.47;;
43311;SDS011;30041;48.300;16.352;2023-08-01T10:55:08;6.75;;;3.50;;
43311;SDS011;30041;48.300;16.352;2023-08-01T10:57:35;8.25;;;3.47;;
43311;SDS011;30041;48.300;16.352;2023-08-01T11:00:02;8.48;;;3.85;;
43311;SDS011;30041;48.300;16.352;2023-08-01T11:02:30;11.25;;;3.63;;
43311;SDS011;30041;48.300;16.352;2023-08-01T11:05:01;10.65;;;3.95;;
43311;SDS011;30041;48.300;16.352;2023-08-01T11:07:28;9.85;;;3.92;;
43311;SDS011;30041;48.300;16.352;2023-08-01T11:10:28;7.97;;;3.67;;
43311;SDS011;30041;48.300;16.352;2023-08-01T11:12:47;7.28;;;3.72;;
43311;SDS011;30041;48.300;16.352;2023-08-01T11:15:14;7.35;;;3.95;;
43311;SDS011;30041;48.300;16.352;2023-08-01T11:17:40;6.72;;;3.75;;
43311;SDS011;30041;48.300;16.352;2023-08-01T11:20:14;8.02;;;3.75;;
43311;SDS011;30041;48.300;16.352;2023-08-01T11:22:59;7.57;;;3.60;;
43311;SDS011;30041;48.300;16.352;2023-08-01T11:28:08;5.43;;;3.40;;
43311;SDS011;30041;48.300;16.352;2023-08-01T11:30:35;6.63;;;3.40;;
43311;SDS011;30041;48.300;16.352;2023-08-01T11:33:01;8.98;;;3.30;;
43311;SDS011;30041;48.300;16.352;2023-08-01T11:35:27;4.97;;;3.28;;
43311;SDS011;30041;48.300;16.352;2023-08-01T11:37:52;4.70;;;3.33;;
43311;SDS011;30041;48.300;16.352;2023-08-01T11:40:18;6.78;;;3.33;;
43311;SDS011;30041;48.300;16.352;2023-08-01T11:42:50;6.38;;;3.58;;
43311;SDS011;30041;48.300;16.352;2023-08-01T11:47:46;5.50;;;3.23;;
43311;SDS011;30041;48.300;16.352;2023-08-01T11:50:12;5.57;;;3.38;;
43311;SDS011;30041;48.300;16.352;2023-08-01T11:52:38;6.15;;;3.75;;
43311;SDS011;30041;48.300;16.352;2023-08-01T11:55:04;7.47;;;3.65;;
43311;SDS011;30041;48.300;16.352;2023-08-01T11:57:30;6.05;;;3.60;;
43311;SDS011;30041;48.300;16.352;2023-08-01T12:00:25;5.70;;;3.80;;
43311;SDS011;30041;48.300;16.352;2023-08-01T12:03:02;7.35;;;3.53;;
43311;SDS011;30041;48.300;16.352;2023-08-01T12:05:32;8.18;;;4.03;;
43311;SDS011;30041;48.300;16.352;2023-08-01T12:08:18;7.60;;;4.32;;
43311;SDS011;30041;48.300;16.352;2023-08-01T12:10:44;6.77;;;4.10;;
43311;SDS011;30041;48.300;16.352;2023-08-01T12:13:22;6.72;;;4.18;;
43311;SDS011;30041;48.300;16.352;2023-08-01T12:15:49;6.45;;;4.00;;
43311;SDS011;30041;48.300;16.352;2023-08-01T12:18:20;5.88;;;3.63;;
43311;SDS011;30041;48.300;16.352;2023-08-01T12:20:52;7.00;;;4.82;;
43311;SDS011;30041;48.300;16.352;2023-08-01T12:23:18;8.52;;;4.38;;
43311;SDS011;30041;48.300;16.352;2023-08-01T12:25:44;9.63;;;4.53;;
43311;SDS011;30041;48.300;16.352;2023-08-01T12:28:10;7.55;;;4.60;;
43311;SDS011;30041;48.300;16.352;2023-08-01T12:30:35;9.55;;;4.47;;
43311;SDS011;30041;48.300;16.352;2023-08-01T12:33:01;8.80;;;4.63;;
43311;SDS011;30041;48.300;16.352;2023-08-01T12:35:26;9.57;;;4.93;;
43311;SDS011;30041;48.300;16.352;2023-08-01T12:37:52;11.57;;;4.75;;
43311;SDS011;30041;48.300;16.352;2023-08-01T12:40:17;7.95;;;5.30;;
43311;SDS011;30041;48.300;16.352;2023-08-01T12:42:43;7.13;;;5.00;;
43311;SDS011;30041;48.300;16.352;2023-08-01T12:45:09;8.05;;;5.07;;
43311;SDS011;30041;48.300;16.352;2023-08-01T12:47:35;7.55;;;5.72;;
43311;SDS011;30041;48.300;16.352;2023-08-01T12:50:00;10.77;;;5.85;;
43311;SDS011;30041;48.300;16.352;2023-08-01T12:52:26;15.88;;;5.75;;
43311;SDS011;30041;48.300;16.352;2023-08-01T12:54:52;13.57;;;6.40;;
43311;SDS011;30041;48.300;16.352;2023-08-01T12:57:18;12.95;;;5.90;;
43311;SDS011;30041;48.300;16.352;2023-08-01T12:59:44;13.90;;;5.93;;
43311;SDS011;30041;48.300;16.352;2023-08-01T13:02:09;9.90;;;6.03;;
43311;SDS011;30041;48.300;16.352;2023-08-01T13:04:35;8.35;;;5.40;;
43311;SDS011;30041;48.300;16.352;2023-08-01T13:07:01;8.85;;;5.65;;
43311;SDS011;30041;48.300;16.352;2023-08-01T13:09:26;12.88;;;5.88;;
43311;SDS011;30041;48.300;16.352;2023-08-01T13:11:52;8.57;;;4.75;;
43311;SDS011;30041;48.300;16.352;2023-08-01T13:14:17;8.45;;;4.78;;
43311;SDS011;30041;48.300;16.352;2023-08-01T13:16:43;9.57;;;4.85;;
43311;SDS011;30041;48.300;16.352;2023-08-01T13:19:08;8.13;;;4.50;;
43311;SDS011;30041;48.300;16.352;2023-08-01T13:21:34;10.02;;;4.90;;
43311;SDS011;30041;48.300;16.352;2023-08-01T13:24:00;10.68;;;4.60;;
43311;SDS011;30041;48.300;16.352;2023-08-01T13:26:26;8.93;;;4.55;;
43311;SDS011;30041;48.300;16.352;2023-08-01T13:28:51;8.68;;;4.70;;
43311;SDS011;30041;48.300;16.352;2023-08-01T13:31:17;6.55;;;4.22;;
43311;SDS011;30041;48.300;16.352;2023-08-01T13:33:42;8.13;;;4.57;;
43311;SDS011;30041;48.300;16.352;2023-08-01T13:36:08;6.88;;;4.47;;
43311;SDS011;30041;48.300;16.352;2023-08-01T13:38:34;6.80;;;4.07;;
43311;SDS011;30041;48.300;16.352;2023-08-01T13:40:59;5.47;;;3.70;;
43311;SDS011;30041;48.300;16.352;2023-08-01T13:43:25;7.68;;;3.95;;
43311;SDS011;30041;48.300;16.352;2023-08-01T13:45:51;7.07;;;4.15;;
43311;SDS011;30041;48.300;16.352;2023-08-01T13:48:16;6.88;;;3.78;;
43311;SDS011;30041;48.300;16.352;2023-08-01T13:50:42;8.32;;;4.47;;
43311;SDS011;30041;48.300;16.352;2023-08-01T13:53:07;6.55;;;4.00;;
43311;SDS011;30041;48.300;16.352;2023-08-01T13:55:33;7.22;;;3.92;;
43311;SDS011;30041;48.300;16.352;2023-08-01T13:57:58;6.55;;;4.18;;
43311;SDS011;30041;48.300;16.352;2023-08-01T14:00:24;8.02;;;4.20;;
43311;SDS011;30041;48.300;16.352;2023-08-01T14:02:50;6.97;;;4.22;;
43311;SDS011;30041;48.300;16.352;2023-08-01T14:05:15;6.53;;;4.30;;
43311;SDS011;30041;48.300;16.352;2023-08-01T14:07:41;8.20;;;4.53;;
43311;SDS011;30041;48.300;16.352;2023-08-01T14:10:06;6.97;;;3.75;;
43311;SDS011;30041;48.300;16.352;2023-08-01T14:12:32;8.45;;;4.28;;
43311;SDS011;30041;48.300;16.352;2023-08-01T14:14:58;8.23;;;4.35;;
43311;SDS011;30041;48.300;16.352;2023-08-01T14:17:23;8.13;;;4.30;;
43311;SDS011;30041;48.300;16.352;2023-08-01T14:19:49;7.18;;;4.25;;
43311;SDS011;30041;48.300;16.352;2023-08-01T14:22:15;7.20;;;4.40;;
43311;SDS011;30041;48.300;16.352;2023-08-01T14:24:40;6.97;;;4.80;;
43311;SDS011;30041;48.300;16.352;2023-08-01T14:27:06;8.73;;;4.80;;
43311;SDS011;30041;48.300;16.352;2023-08-01T14:29:31;8.77;;;4.65;;
43311;SDS011;30041;48.300;16.352;2023-08-01T14:31:57;8.50;;;5.03;;
43311;SDS011;30041;48.300;16.352;2023-08-01T14:34:23;12.63;;;4.50;;
43311;SDS011;30041;48.300;16.352;2023-08-01T14:36:48;9.98;;;4.57;;
43311;SDS011;30041;48.300;16.352;2023-08-01T14:39:14;7.50;;;4.43;;